KDNN/DNN METAR and TAF weather

Enter ICAO airport designator
Station Type Date Time Source
KDNN METAR 2019/10/18 06:35 UTC NOAA

KDNN 180635Z AUTO 00000KT 10SM CLR 07/03 A3002 RMK AO2


Station Type Date Time Source
KDNN Decoded METAR 2019/10/18 06:35 UTC NOAA

Dalton, Dalton Municipal Airport, GA, United States (KDNN) 34-43-18N 084-52-09W
Oct 18, 2019 - 02:35 AM EDT / 2019.10.18 0635 UTC
Wind: Calm:0
Visibility: 10 mile(s):0
Sky conditions: clear
Temperature: 44 F (7 C)
Dew Point: 37 F (3 C)
Relative Humidity: 75%
Pressure (altimeter): 30.02 in. Hg (1016 hPa)
ob: KDNN 180635Z AUTO 00000KT 10SM CLR 07/03 A3002 RMK AO2
cycle: 6

Station Type Date Time Source
KDNN TAF UTC NOAA

Error!

Example: see airport list